Time;durP1;ratioP1;P1;durP2;ratioP2;P2;SDS_P1;SDS_P2;PMS_P1;PMS_P2;Temp;Humidity;BMP_temperature;BMP_pressure;BME280_temperature;BME280_humidity;BME280_pressure;Samples;Min_cycle;Max_cycle;Signal;HPM_P1;HPM_P2
2021/08/15 00:05:58;;;;;;;2.90;1.60;;;21.70;62.40;;;;;;20832570;28;20099;-20
2021/08/15 00:15:59;;;;;;;2.80;1.60;;;21.70;62.40;;;;;;20833005;28;20037;-20
2021/08/15 00:25:59;;;;;;;3.53;1.77;;;21.70;62.40;;;;;;20831156;28;20033;-21
2021/08/15 00:36:00;;;;;;;3.05;1.85;;;21.80;62.40;;;;;;20830320;28;20409;-20
2021/08/15 00:46:07;;;;;;;2.75;1.60;;;21.70;62.40;;;;;;20830184;28;20033;-21
2021/08/15 00:56:09;;;;;;;2.50;2.00;;;21.70;62.40;;;;;;20828452;28;20037;-20
2021/08/15 01:06:10;;;;;;;2.90;1.98;;;21.80;62.40;;;;;;20827948;28;20056;-20
2021/08/15 01:16:11;;;;;;;1.92;1.10;;;21.80;62.40;;;;;;20828142;28;20045;-20
2021/08/15 01:26:15;;;;;;;2.58;1.85;;;21.80;62.40;;;;;;20827281;28;20537;-21
2021/08/15 01:36:19;;;;;;;2.13;1.48;;;21.70;62.80;;;;;;20827747;28;20077;-21
2021/08/15 01:46:21;;;;;;;2.50;1.60;;;21.80;62.40;;;;;;20826605;28;20037;-21
2021/08/15 01:56:23;;;;;;;2.67;1.80;;;21.70;62.30;;;;;;20823943;28;20038;-21
2021/08/15 02:06:24;;;;;;;2.67;1.65;;;21.80;62.30;;;;;;20822873;28;20038;-21
2021/08/15 02:16:24;;;;;;;2.40;1.77;;;21.70;62.30;;;;;;20821363;28;20029;-19
2021/08/15 02:26:25;;;;;;;4.03;1.73;;;21.70;62.30;;;;;;20821155;28;20449;-20
2021/08/15 02:36:25;;;;;;;2.97;2.08;;;21.70;62.20;;;;;;20820181;28;20033;-20
2021/08/15 02:46:26;;;;;;;2.67;1.63;;;21.70;62.30;;;;;;20820485;28;20053;-20
2021/08/15 02:56:26;;;;;;;3.67;1.90;;;21.70;62.30;;;;;;20820307;28;20029;-19
2021/08/15 03:06:27;;;;;;;4.82;1.95;;;21.70;62.30;;;;;;20819401;28;20132;-20
2021/08/15 03:16:27;;;;;;;2.80;1.80;;;21.70;62.30;;;;;;20820260;28;20379;-19
2021/08/15 03:26:28;;;;;;;3.22;1.98;;;21.70;62.30;;;;;;20822826;28;20421;-20
2021/08/15 03:36:29;;;;;;;3.15;1.80;;;21.70;62.30;;;;;;20835487;28;20482;-20
2021/08/15 03:46:29;;;;;;;5.00;1.98;;;21.70;62.30;;;;;;20833874;28;20116;-20
2021/08/15 03:56:30;;;;;;;4.22;2.03;;;21.70;62.30;;;;;;20832939;28;20477;-20
2021/08/15 04:06:33;;;;;;;2.42;1.60;;;21.70;62.30;;;;;;20832077;28;20065;-20
2021/08/15 04:16:34;;;;;;;3.55;1.75;;;21.70;62.30;;;;;;20833227;28;20104;-20
2021/08/15 04:26:35;;;;;;;3.33;1.95;;;21.70;62.20;;;;;;20831761;28;20044;-21
2021/08/15 04:36:36;;;;;;;2.58;1.85;;;21.70;62.20;;;;;;20828774;28;20025;-20
2021/08/15 04:46:36;;;;;;;2.97;1.92;;;21.70;62.20;;;;;;20829046;28;20040;-20
2021/08/15 04:56:37;;;;;;;2.53;1.40;;;21.70;62.20;;;;;;20828625;28;20032;-21
2021/08/15 05:06:37;;;;;;;2.47;1.70;;;21.70;62.20;;;;;;20829702;28;20037;-22
2021/08/15 05:16:38;;;;;;;3.70;2.33;;;21.70;62.20;;;;;;20831825;28;20029;-20
2021/08/15 05:26:39;;;;;;;3.08;2.40;;;21.70;62.20;;;;;;20829043;28;20033;-20
2021/08/15 05:36:40;;;;;;;3.92;2.03;;;21.70;62.10;;;;;;20825475;28;20100;-19
2021/08/15 05:46:40;;;;;;;2.88;2.00;;;21.70;62.20;;;;;;20824354;28;20037;-20
2021/08/15 05:56:41;;;;;;;3.90;2.08;;;21.70;62.10;;;;;;20823905;28;20053;-20
2021/08/15 06:06:41;;;;;;;2.65;1.80;;;21.70;62.10;;;;;;20823007;28;20042;-21
2021/08/15 06:16:42;;;;;;;3.75;1.83;;;21.60;62.00;;;;;;20824464;28;20104;-20
2021/08/15 06:26:42;;;;;;;3.25;2.13;;;21.70;62.00;;;;;;20821685;28;20536;-21
2021/08/15 06:36:43;;;;;;;4.70;1.88;;;21.70;62.00;;;;;;20825412;28;20083;-20
2021/08/15 06:46:43;;;;;;;3.55;2.00;;;21.70;62.00;;;;;;20820024;28;20033;-21
2021/08/15 06:56:45;;;;;;;3.45;2.08;;;21.70;61.90;;;;;;20819794;28;20025;-21
2021/08/15 07:06:46;;;;;;;4.22;1.98;;;21.70;62.00;;;;;;20819010;28;20050;-21
2021/08/15 07:16:46;;;;;;;2.92;2.10;;;21.70;61.90;;;;;;20819192;28;20025;-21
2021/08/15 07:26:47;;;;;;;3.80;2.20;;;21.70;62.00;;;;;;20819004;28;20037;-22
2021/08/15 07:36:47;;;;;;;4.00;2.28;;;21.70;62.00;;;;;;20818722;28;20038;-21
2021/08/15 07:46:48;;;;;;;3.63;2.45;;;21.70;62.00;;;;;;20819457;28;20037;-19
2021/08/15 07:56:49;;;;;;;3.38;2.40;;;21.70;62.10;;;;;;20821898;28;20045;-20
2021/08/15 08:06:50;;;;;;;3.95;2.55;;;21.70;62.20;;;;;;20820391;28;20049;-21
2021/08/15 08:16:52;;;;;;;2.58;2.20;;;21.70;62.20;;;;;;20825033;28;20036;-21
2021/08/15 08:26:52;;;;;;;4.30;3.10;;;21.70;62.10;;;;;;20834026;28;20394;-20
2021/08/15 08:36:53;;;;;;;3.73;2.23;;;21.70;62.10;;;;;;20832015;28;20033;-20
2021/08/15 08:46:57;;;;;;;2.65;1.73;;;21.70;62.10;;;;;;20836781;28;20506;-21
2021/08/15 08:57:00;;;;;;;2.90;1.88;;;21.70;62.10;;;;;;20831687;28;20064;-22
2021/08/15 09:07:15;;;;;;;4.13;2.25;;;21.70;62.10;;;;;;20832440;28;20037;-20
2021/08/15 09:17:15;;;;;;;3.10;2.35;;;21.70;62.20;;;;;;20828205;28;20033;-21
2021/08/15 09:27:36;;;;;;;4.00;2.42;;;21.70;62.20;;;;;;20825797;28;20574;-21
2021/08/15 09:37:39;;;;;;;3.92;2.50;;;21.70;62.20;;;;;;20826168;28;20042;-21
2021/08/15 09:47:40;;;;;;;4.72;3.13;;;21.70;62.70;;;;;;20825768;28;20052;-19
2021/08/15 09:57:42;;;;;;;2.88;2.33;;;21.70;62.20;;;;;;20832278;28;20030;-20
2021/08/15 10:07:43;;;;;;;3.88;2.20;;;21.70;62.30;;;;;;20831205;28;20069;-21
2021/08/15 10:17:46;;;;;;;3.33;2.40;;;21.70;62.30;;;;;;20825878;28;20112;-21
2021/08/15 10:27:48;;;;;;;3.22;2.30;;;21.70;62.30;;;;;;20822675;28;20112;-20
2021/08/15 10:38:00;;;;;;;4.35;2.47;;;21.80;62.10;;;;;;20821974;28;20052;-21
2021/08/15 10:48:10;;;;;;;2.83;2.05;;;21.80;62.00;;;;;;20821489;28;20033;-21
2021/08/15 10:58:39;;;;;;;3.95;2.28;;;21.90;62.10;;;;;;20820267;28;20117;-21
2021/08/15 11:08:46;;;;;;;2.85;2.10;;;21.90;62.10;;;;;;20822710;28;20068;-21
2021/08/15 11:19:08;;;;;;;3.92;2.55;;;21.90;62.00;;;;;;20819571;28;20037;-22
2021/08/15 11:29:09;;;;;;;2.85;1.92;;;21.90;62.00;;;;;;20819225;28;20536;-21
2021/08/15 11:39:10;;;;;;;4.25;2.40;;;21.90;62.10;;;;;;20818870;28;20045;-21
2021/08/15 11:49:10;;;;;;;3.72;2.15;;;21.90;62.10;;;;;;20825513;28;20453;-20
2021/08/15 11:59:16;;;;;;;3.75;2.40;;;21.90;62.10;;;;;;20834459;28;20080;-21
2021/08/15 12:09:25;;;;;;;3.38;2.28;;;21.90;62.00;;;;;;20833144;28;20040;-19
2021/08/15 12:19:28;;;;;;;3.28;2.72;;;21.90;62.50;;;;;;20832574;28;20042;-20
2021/08/15 12:29:39;;;;;;;3.05;2.40;;;21.90;62.00;;;;;;20831567;28;20421;-19
2021/08/15 12:39:43;;;;;;;3.15;2.55;;;21.90;62.00;;;;;;20831496;28;20044;-21
2021/08/15 12:49:46;;;;;;;2.42;1.83;;;22.00;62.10;;;;;;20829692;28;20033;-19
2021/08/15 12:59:47;;;;;;;4.43;2.42;;;22.00;62.10;;;;;;20828510;28;20037;-20
2021/08/15 13:09:47;;;;;;;2.97;2.08;;;22.00;62.10;;;;;;20828788;28;20533;-20
2021/08/15 13:19:48;;;;;;;3.58;1.98;;;22.00;62.10;;;;;;20827421;28;20041;-21
2021/08/15 13:29:48;;;;;;;2.80;1.98;;;22.00;62.10;;;;;;20826671;28;20030;-21
2021/08/15 13:39:53;;;;;;;3.67;2.00;;;22.00;62.00;;;;;;20829704;28;20041;-19
2021/08/15 13:49:55;;;;;;;2.95;1.90;;;22.00;62.00;;;;;;20825360;28;20038;-21
2021/08/15 13:59:55;;;;;;;3.83;2.65;;;22.10;62.00;;;;;;20827401;28;20124;-19
2021/08/15 14:09:56;;;;;;;2.27;1.93;;;22.10;61.90;;;;;;20836481;28;20037;-22
2021/08/15 14:19:57;;;;;;;2.63;2.05;;;22.10;62.00;;;;;;20830184;28;20846;-19
2021/08/15 14:29:57;;;;;;;2.45;2.05;;;22.10;62.00;;;;;;20833897;28;20034;-20
2021/08/15 14:39:58;;;;;;;3.70;2.03;;;22.10;61.90;;;;;;20824602;28;20076;-21
2021/08/15 14:49:59;;;;;;;2.75;2.08;;;22.10;62.00;;;;;;20821115;28;20044;-21
2021/08/15 14:59:59;;;;;;;2.67;1.90;;;22.10;61.90;;;;;;20823425;28;20034;-21
2021/08/15 15:10:00;;;;;;;2.13;1.55;;;22.20;62.00;;;;;;20821304;28;20409;-19
2021/08/15 15:20:01;;;;;;;2.88;2.22;;;22.10;62.00;;;;;;20820923;28;20045;-20
2021/08/15 15:30:01;;;;;;;3.55;1.83;;;22.10;62.00;;;;;;20843980;28;20033;-21
2021/08/15 15:40:04;;;;;;;2.78;1.88;;;22.10;62.10;;;;;;20841226;28;20030;-21
2021/08/15 15:50:05;;;;;;;2.65;1.95;;;22.10;62.10;;;;;;20834657;28;20379;-21
2021/08/15 16:00:07;;;;;;;2.10;1.45;;;22.10;62.10;;;;;;20834190;28;20421;-21
2021/08/15 16:10:09;;;;;;;2.20;1.77;;;22.10;62.10;;;;;;20832249;28;20045;-21
2021/08/15 16:20:10;;;;;;;2.55;1.60;;;22.10;62.10;;;;;;20832102;28;20045;-21
2021/08/15 16:30:11;;;;;;;2.60;1.83;;;22.10;62.10;;;;;;20831203;28;20038;-21
2021/08/15 16:40:12;;;;;;;2.22;1.60;;;22.10;62.20;;;;;;20833465;28;20136;-21
2021/08/15 16:50:13;;;;;;;2.58;1.75;;;22.20;62.20;;;;;;20830037;28;20034;-22
2021/08/15 17:00:14;;;;;;;3.07;1.93;;;22.10;62.20;;;;;;20829422;28;20492;-19
2021/08/15 17:10:14;;;;;;;2.38;1.63;;;22.20;62.20;;;;;;20834624;28;20038;-22
2021/08/15 17:20:15;;;;;;;2.23;1.70;;;22.20;62.20;;;;;;20844100;28;20501;-22
2021/08/15 17:30:17;;;;;;;2.20;1.48;;;22.20;62.30;;;;;;20826950;28;20038;-21
2021/08/15 17:40:19;;;;;;;2.80;1.98;;;22.10;62.40;;;;;;20826219;28;20235;-20
2021/08/15 17:50:19;;;;;;;2.50;1.85;;;22.10;62.30;;;;;;20828177;28;20335;-21
2021/08/15 18:00:20;;;;;;;2.28;1.60;;;22.10;62.30;;;;;;20825211;28;20057;-20
2021/08/15 18:10:21;;;;;;;2.65;1.95;;;22.10;62.30;;;;;;20823589;28;20048;-20
2021/08/15 18:20:22;;;;;;;2.25;1.88;;;22.10;62.30;;;;;;20823334;28;20061;-21
2021/08/15 18:30:23;;;;;;;4.85;1.35;;;22.10;62.30;;;;;;20821960;28;20065;-21
2021/08/15 18:40:24;;;;;;;2.60;1.48;;;22.10;62.30;;;;;;20824021;28;20088;-21
2021/08/15 18:50:25;;;;;;;2.60;1.70;;;22.10;62.30;;;;;;20820755;28;20078;-20
2021/08/15 19:00:25;;;;;;;2.95;1.85;;;22.00;62.20;;;;;;20820134;28;20045;-21
2021/08/15 19:10:26;;;;;;;2.63;1.90;;;22.10;62.30;;;;;;20829959;28;20037;-22
2021/08/15 19:20:32;;;;;;;2.87;1.77;;;22.00;62.30;;;;;;20819438;28;20143;-21
2021/08/15 19:30:32;;;;;;;3.60;1.35;;;22.00;62.40;;;;;;20818544;28;20041;-20
2021/08/15 19:40:34;;;;;;;2.45;1.67;;;22.00;62.80;;;;;;20819081;28;20052;-21
2021/08/15 19:50:35;;;;;;;2.50;1.30;;;21.90;62.30;;;;;;20819590;28;20034;-21
2021/08/15 20:00:36;;;;;;;2.58;1.60;;;22.00;62.20;;;;;;20818541;28;20029;-21
2021/08/15 20:10:37;;;;;;;2.80;1.70;;;22.00;62.10;;;;;;20822905;28;20136;-21
2021/08/15 20:20:37;;;;;;;2.17;1.40;;;22.00;62.10;;;;;;20831750;28;20068;-21
2021/08/15 20:30:38;;;;;;;3.97;1.83;;;22.00;62.10;;;;;;20830882;28;20061;-21
2021/08/15 20:40:39;;;;;;;3.85;1.65;;;22.00;62.20;;;;;;20831750;28;20034;-21
2021/08/15 20:50:40;;;;;;;1.77;1.30;;;22.00;62.20;;;;;;20874762;28;20184;-21
2021/08/15 21:00:44;;;;;;;2.55;1.70;;;21.90;62.20;;;;;;20829682;28;20045;-21
2021/08/15 21:10:46;;;;;;;2.90;1.75;;;22.00;62.20;;;;;;20827377;28;20509;-21
2021/08/15 21:20:47;;;;;;;2.08;1.52;;;21.90;62.20;;;;;;20826198;28;20047;-21
2021/08/15 21:30:48;;;;;;;1.88;1.13;;;22.00;62.30;;;;;;20825886;28;20128;-20
2021/08/15 21:40:49;;;;;;;2.78;1.70;;;21.90;62.20;;;;;;20825159;28;20540;-20
2021/08/15 21:50:49;;;;;;;2.20;1.48;;;21.90;62.20;;;;;;20823343;28;20042;-20
2021/08/15 22:00:50;;;;;;;2.05;1.25;;;21.90;62.20;;;;;;20824461;28;20048;-21
2021/08/15 22:10:50;;;;;;;2.45;1.30;;;21.90;62.40;;;;;;20822658;28;20568;-21
2021/08/15 22:20:51;;;;;;;2.70;1.45;;;21.90;62.40;;;;;;20822702;28;20095;-21
2021/08/15 22:30:52;;;;;;;1.83;1.25;;;21.90;62.40;;;;;;20820906;28;20037;-21
2021/08/15 22:40:52;;;;;;;2.22;1.70;;;21.90;62.50;;;;;;20820942;28;20026;-21
2021/08/15 22:50:53;;;;;;;1.60;1.10;;;21.90;62.40;;;;;;20820958;28;20516;-21
2021/08/15 23:00:53;;;;;;;2.03;1.30;;;22.00;62.50;;;;;;20820750;28;20034;-21
2021/08/15 23:10:54;;;;;;;2.80;1.40;;;21.90;62.40;;;;;;20822430;28;20099;-21
2021/08/15 23:20:54;;;;;;;1.83;1.42;;;21.90;62.40;;;;;;20821654;28;20117;-22
2021/08/15 23:30:55;;;;;;;2.55;1.25;;;21.90;62.30;;;;;;20817734;28;20037;-19
2021/08/15 23:40:56;;;;;;;1.95;1.30;;;21.90;62.30;;;;;;20818328;28;20512;-20
2021/08/15 23:50:56;;;;;;;2.60;1.70;;;21.90;62.30;;;;;;20833398;28;20111;-21
